Time;durP1;ratioP1;P1;durP2;ratioP2;P2;SDS_P1;SDS_P2;PMS_P1;PMS_P2;Temp;Humidity;BMP_temperature;BMP_pressure;BME280_temperature;BME280_humidity;BME280_pressure;Samples;Min_cycle;Max_cycle;Signal;HPM_P1;HPM_P2
2022/11/23 00:01:20;;;;;;;4.60;2.15;;;4.90;99.90;;;;;;6143394;23;20210;-77
2022/11/23 00:03:49;;;;;;;4.35;1.83;;;4.90;99.90;;;;;;6145571;23;20320;-77
2022/11/23 00:06:18;;;;;;;3.03;1.90;;;4.90;99.90;;;;;;6140324;23;20221;-77
2022/11/23 00:08:45;;;;;;;3.65;2.10;;;4.90;99.90;;;;;;6141921;23;20651;-77
2022/11/23 00:11:13;;;;;;;5.32;2.25;;;4.90;99.90;;;;;;6107418;23;20256;-77
2022/11/23 00:13:41;;;;;;;4.68;1.77;;;4.80;99.90;;;;;;6142917;23;20591;-77
2022/11/23 00:16:09;;;;;;;4.15;2.30;;;4.80;99.90;;;;;;6146063;23;20578;-77
2022/11/23 00:18:39;;;;;;;4.95;2.30;;;4.80;99.90;;;;;;6118331;23;20190;-77
2022/11/23 00:21:08;;;;;;;4.55;2.22;;;4.90;99.90;;;;;;6142820;23;20244;-77
2022/11/23 00:23:36;;;;;;;6.28;2.20;;;4.90;99.90;;;;;;6139628;23;20639;-77
2022/11/23 00:26:05;;;;;;;5.75;2.10;;;4.50;99.90;;;;;;6145630;23;20589;-77
2022/11/23 00:28:33;;;;;;;2.97;2.25;;;4.80;99.90;;;;;;6141262;23;20282;-77
2022/11/23 00:31:01;;;;;;;4.10;2.00;;;4.80;99.90;;;;;;6135097;23;20210;-77
2022/11/23 00:33:28;;;;;;;3.15;2.22;;;4.80;99.90;;;;;;6140947;23;20262;-77
2022/11/23 00:36:04;;;;;;;4.97;2.72;;;4.80;99.90;;;;;;6139879;23;20278;-77
2022/11/23 00:38:32;;;;;;;4.32;2.00;;;4.70;99.90;;;;;;6102421;23;20186;-77
2022/11/23 00:41:01;;;;;;;6.55;2.88;;;4.70;99.90;;;;;;6145093;23;20194;-77
2022/11/23 00:43:28;;;;;;;5.25;2.50;;;4.70;99.90;;;;;;6141131;23;20187;-77
2022/11/23 00:46:11;;;;;;;3.20;2.13;;;4.80;99.90;;;;;;6143480;23;20269;-77
2022/11/23 00:48:39;;;;;;;5.53;2.53;;;4.80;99.90;;;;;;6143890;23;20281;-77
2022/11/23 00:51:09;;;;;;;4.25;2.63;;;4.90;99.90;;;;;;6136658;23;20645;-77
2022/11/23 00:53:36;;;;;;;2.28;2.00;;;4.90;99.90;;;;;;6143247;23;20270;-77
2022/11/23 00:56:04;;;;;;;5.75;2.70;;;5.00;99.90;;;;;;6138206;23;20255;-77
2022/11/23 00:58:32;;;;;;;4.60;1.77;;;5.00;99.90;;;;;;6137406;23;20199;-77
2022/11/23 01:01:04;;;;;;;4.68;2.25;;;5.00;99.90;;;;;;6144022;23;20244;-78
2022/11/23 01:03:32;;;;;;;4.13;1.90;;;5.10;99.90;;;;;;6144274;23;20187;-77
2022/11/23 01:06:03;;;;;;;2.80;1.83;;;5.10;99.90;;;;;;6144997;23;20214;-77
2022/11/23 01:08:33;;;;;;;4.82;2.10;;;5.20;99.90;;;;;;6143864;23;20186;-77
2022/11/23 01:11:02;;;;;;;4.13;2.05;;;5.20;99.90;;;;;;6142694;23;20187;-77
2022/11/23 01:13:31;;;;;;;3.83;2.75;;;5.20;99.90;;;;;;6143421;23;20182;-77
2022/11/23 01:15:58;;;;;;;5.20;2.60;;;5.20;99.90;;;;;;6144344;23;20183;-77
2022/11/23 01:18:26;;;;;;;4.13;2.55;;;5.30;99.90;;;;;;6145228;23;20339;-77
2022/11/23 01:20:53;;;;;;;4.05;2.05;;;5.30;99.90;;;;;;6144838;23;20217;-77
2022/11/23 01:23:20;;;;;;;3.40;2.45;;;5.30;99.90;;;;;;6143210;23;20277;-77
2022/11/23 01:25:49;;;;;;;4.22;1.90;;;5.30;99.90;;;;;;6134899;23;20198;-78
2022/11/23 01:28:16;;;;;;;4.13;1.80;;;5.30;99.90;;;;;;6143891;23;20210;-77
2022/11/23 01:30:43;;;;;;;3.33;2.15;;;5.40;99.90;;;;;;6143096;23;20191;-78
2022/11/23 01:33:10;;;;;;;3.55;1.98;;;5.40;99.90;;;;;;6141393;23;20197;-77
2022/11/23 01:35:37;;;;;;;4.82;2.20;;;5.40;99.90;;;;;;6146581;23;20244;-77
2022/11/23 01:38:04;;;;;;;4.75;2.00;;;5.40;99.90;;;;;;6126194;23;20194;-77
2022/11/23 01:40:39;;;;;;;3.97;1.63;;;5.40;99.90;;;;;;6160849;23;20219;-77
2022/11/23 01:43:14;;;;;;;2.83;1.83;;;5.40;99.90;;;;;;6162700;23;20190;-78
2022/11/23 01:45:44;;;;;;;4.03;1.85;;;5.30;99.90;;;;;;6115968;23;20235;-77
2022/11/23 01:48:17;;;;;;;5.72;2.67;;;5.30;99.90;;;;;;6159876;23;20207;-77
2022/11/23 01:50:48;;;;;;;3.67;1.95;;;5.20;99.90;;;;;;6145022;23;20186;-77
2022/11/23 01:53:16;;;;;;;2.97;1.77;;;5.20;99.90;;;;;;6141577;23;20244;-77
2022/11/23 01:55:47;;;;;;;4.43;2.10;;;5.20;99.90;;;;;;6114970;23;20269;-78
2022/11/23 01:58:20;;;;;;;3.00;1.90;;;5.20;99.90;;;;;;6129924;23;20520;-77
2022/11/23 02:00:48;;;;;;;5.95;2.22;;;5.20;99.90;;;;;;6144554;23;20191;-78
2022/11/23 02:03:17;;;;;;;3.55;1.80;;;5.20;99.90;;;;;;6116613;23;20274;-78
2022/11/23 02:05:48;;;;;;;4.10;1.80;;;5.10;99.90;;;;;;6144330;23;20322;-78
2022/11/23 02:08:17;;;;;;;4.05;2.60;;;5.10;99.90;;;;;;6144035;23;20260;-77
2022/11/23 02:10:44;;;;;;;4.85;2.17;;;5.10;99.90;;;;;;6141773;23;20260;-77
2022/11/23 02:13:14;;;;;;;5.18;2.30;;;5.20;99.90;;;;;;6112469;23;20248;-77
2022/11/23 02:15:42;;;;;;;8.00;2.83;;;5.10;99.90;;;;;;6144402;23;20183;-77
2022/11/23 02:18:16;;;;;;;3.80;2.20;;;5.20;99.90;;;;;;6109790;23;20195;-78
2022/11/23 02:20:44;;;;;;;7.68;2.50;;;5.20;99.90;;;;;;6111875;23;20680;-77
2022/11/23 02:23:22;;;;;;;3.33;1.90;;;5.20;99.90;;;;;;6114839;23;20253;-77
2022/11/23 02:26:02;;;;;;;2.95;1.70;;;5.20;99.90;;;;;;6141903;23;20194;-77
2022/11/23 02:28:34;;;;;;;2.58;1.88;;;5.20;99.90;;;;;;6141672;23;20393;-77
2022/11/23 02:31:02;;;;;;;6.88;2.20;;;5.20;99.90;;;;;;6141583;23;20615;-77
2022/11/23 02:33:29;;;;;;;4.40;1.90;;;5.20;99.90;;;;;;6141922;23;20182;-77
2022/11/23 02:35:59;;;;;;;4.45;1.65;;;5.20;99.90;;;;;;6113926;23;20555;-77
2022/11/23 02:38:31;;;;;;;2.50;1.67;;;5.10;99.90;;;;;;6145743;23;20214;-77
2022/11/23 02:41:00;;;;;;;4.45;2.20;;;5.20;99.90;;;;;;6145291;23;20195;-77
2022/11/23 02:43:27;;;;;;;2.50;1.70;;;5.00;99.90;;;;;;6130999;23;20210;-77
2022/11/23 02:45:56;;;;;;;3.28;1.95;;;5.00;99.90;;;;;;6141333;23;20225;-77
2022/11/23 02:48:24;;;;;;;3.25;2.03;;;5.00;99.90;;;;;;6143234;23;20285;-77
2022/11/23 02:50:51;;;;;;;2.20;1.70;;;5.00;99.90;;;;;;6138766;23;20230;-77
2022/11/23 02:53:19;;;;;;;3.30;1.70;;;5.00;99.90;;;;;;6144368;23;20206;-77
2022/11/23 02:55:46;;;;;;;4.80;2.00;;;4.90;99.90;;;;;;6145259;23;20553;-77
2022/11/23 02:58:15;;;;;;;3.17;1.73;;;4.90;99.90;;;;;;6131183;23;20263;-77
2022/11/23 03:00:42;;;;;;;4.45;1.85;;;4.90;99.90;;;;;;6142002;23;20187;-77
2022/11/23 03:03:09;;;;;;;3.65;2.20;;;4.90;99.90;;;;;;6145456;23;20196;-77
2022/11/23 03:05:36;;;;;;;5.50;2.10;;;4.90;99.90;;;;;;6140687;23;20186;-77
2022/11/23 03:08:04;;;;;;;2.00;1.60;;;4.90;99.90;;;;;;6119702;23;20297;-77
2022/11/23 03:10:32;;;;;;;3.78;1.83;;;4.90;99.90;;;;;;6144635;23;20590;-77
2022/11/23 03:12:59;;;;;;;3.05;1.52;;;4.80;99.90;;;;;;6144917;23;20191;-78
2022/11/23 03:15:28;;;;;;;3.75;1.80;;;4.80;99.90;;;;;;6136363;23;20628;-77
2022/11/23 03:17:57;;;;;;;5.00;2.30;;;4.70;99.90;;;;;;6122008;23;20190;-77
2022/11/23 03:20:24;;;;;;;4.45;1.70;;;4.70;99.90;;;;;;6141265;23;20198;-78
2022/11/23 03:22:52;;;;;;;3.13;1.90;;;4.70;99.90;;;;;;6148617;23;20187;-77
2022/11/23 03:25:19;;;;;;;5.38;2.20;;;4.70;99.90;;;;;;6142980;23;20269;-77
2022/11/23 03:27:46;;;;;;;3.75;2.50;;;4.70;99.90;;;;;;6142179;23;20302;-77
2022/11/23 03:30:15;;;;;;;6.90;2.28;;;4.70;99.90;;;;;;6143698;23;20191;-77
2022/11/23 03:32:43;;;;;;;4.35;2.88;;;4.70;99.90;;;;;;6144254;23;20195;-78
2022/11/23 03:35:10;;;;;;;3.50;2.15;;;4.70;99.90;;;;;;6140396;23;20187;-77
2022/11/23 03:37:38;;;;;;;9.90;2.42;;;4.70;99.90;;;;;;6145013;23;20571;-77
2022/11/23 03:40:06;;;;;;;4.72;2.35;;;4.70;99.90;;;;;;6140476;23;20389;-77
2022/11/23 03:42:33;;;;;;;5.65;2.80;;;4.70;99.90;;;;;;6144585;23;20232;-77
2022/11/23 03:45:00;;;;;;;4.90;3.08;;;4.70;99.90;;;;;;6143092;23;20214;-77
2022/11/23 03:47:29;;;;;;;3.20;2.50;;;4.60;99.90;;;;;;6113376;23;20229;-77
2022/11/23 03:49:57;;;;;;;5.80;2.60;;;4.50;99.90;;;;;;6146274;23;20190;-77
2022/11/23 03:52:24;;;;;;;3.35;2.20;;;4.50;99.90;;;;;;6146353;23;20202;-77
2022/11/23 03:54:51;;;;;;;6.20;3.30;;;4.50;99.90;;;;;;6142923;23;20267;-77
2022/11/23 03:57:19;;;;;;;4.60;2.90;;;4.50;99.90;;;;;;6137357;23;20485;-77
2022/11/23 03:59:46;;;;;;;6.38;3.20;;;4.50;99.90;;;;;;6115858;23;20187;-77
2022/11/23 04:02:13;;;;;;;9.70;2.60;;;4.50;99.90;;;;;;6144355;23;20199;-77
2022/11/23 04:04:40;;;;;;;5.00;2.80;;;4.50;99.90;;;;;;6145941;23;20201;-77
2022/11/23 04:07:09;;;;;;;3.70;2.80;;;4.50;99.90;;;;;;6144063;23;20590;-77
2022/11/23 04:09:36;;;;;;;4.30;2.60;;;4.50;99.90;;;;;;6145620;23;20267;-77
2022/11/23 04:12:03;;;;;;;4.60;2.60;;;4.50;99.90;;;;;;6117265;23;20243;-77
2022/11/23 04:14:30;;;;;;;3.25;2.50;;;4.50;99.90;;;;;;6143523;23;20266;-77
2022/11/23 04:16:58;;;;;;;4.78;2.92;;;4.50;99.90;;;;;;6137346;23;20262;-77
2022/11/23 04:19:27;;;;;;;3.00;2.60;;;4.50;99.90;;;;;;6143308;23;20198;-77
2022/11/23 04:21:54;;;;;;;3.85;3.13;;;4.20;99.90;;;;;;6144359;23;20222;-77
2022/11/23 04:24:22;;;;;;;3.60;2.75;;;4.50;99.90;;;;;;6143065;23;20218;-77
2022/11/23 04:26:49;;;;;;;4.80;2.85;;;4.50;99.90;;;;;;6143841;23;20252;-77
2022/11/23 04:29:17;;;;;;;5.03;2.55;;;4.50;99.90;;;;;;6144650;23;20396;-77
2022/11/23 04:31:44;;;;;;;6.93;2.55;;;4.50;99.90;;;;;;6141695;23;20503;-77
2022/11/23 04:34:11;;;;;;;3.75;2.33;;;4.60;99.90;;;;;;6145902;23;20198;-77
2022/11/23 04:36:38;;;;;;;2.97;2.65;;;4.60;99.90;;;;;;6133733;23;20265;-77
2022/11/23 04:39:06;;;;;;;4.13;2.80;;;4.60;99.90;;;;;;6141761;23;20214;-77
2022/11/23 04:41:34;;;;;;;3.90;2.60;;;4.60;99.90;;;;;;6140004;23;20195;-77
2022/11/23 04:44:01;;;;;;;4.10;2.30;;;4.60;99.90;;;;;;6144540;23;20210;-77
2022/11/23 04:46:28;;;;;;;5.93;2.80;;;4.60;99.90;;;;;;6143168;23;20238;-77
2022/11/23 04:48:55;;;;;;;6.20;2.80;;;4.70;99.90;;;;;;6144928;23;20301;-77
2022/11/23 04:51:23;;;;;;;4.15;2.45;;;4.70;99.90;;;;;;6112082;23;20187;-77
2022/11/23 04:53:50;;;;;;;7.15;2.30;;;4.70;99.90;;;;;;6119651;23;20782;-77
2022/11/23 04:56:17;;;;;;;4.65;2.47;;;4.60;99.90;;;;;;6139882;23;20206;-77
2022/11/23 04:58:45;;;;;;;5.82;2.45;;;4.70;99.90;;;;;;6118790;23;20198;-77
2022/11/23 05:01:13;;;;;;;5.28;2.88;;;4.60;99.90;;;;;;6128665;23;20188;-80
2022/11/23 05:03:40;;;;;;;6.55;2.80;;;4.70;99.90;;;;;;6129224;23;20295;-77
2022/11/23 05:06:09;;;;;;;3.72;2.17;;;4.70;99.90;;;;;;6140206;23;20190;-77
2022/11/23 05:08:37;;;;;;;2.88;2.60;;;4.70;99.90;;;;;;6137329;23;20590;-78
2022/11/23 05:11:05;;;;;;;4.80;2.33;;;4.60;99.90;;;;;;6139500;23;20243;-78
2022/11/23 05:13:33;;;;;;;4.00;2.53;;;4.50;99.90;;;;;;6144607;23;20266;-78
2022/11/23 05:16:01;;;;;;;6.13;3.05;;;4.50;99.90;;;;;;6143336;23;20240;-77
2022/11/23 05:18:29;;;;;;;8.40;2.35;;;4.50;99.90;;;;;;6132789;23;20187;-78
2022/11/23 05:20:56;;;;;;;6.30;2.40;;;4.50;99.90;;;;;;6136697;23;20192;-78
2022/11/23 05:23:23;;;;;;;4.82;2.65;;;4.50;99.90;;;;;;6097189;23;20194;-78
2022/11/23 05:25:52;;;;;;;5.68;2.97;;;4.50;99.90;;;;;;6144091;23;20191;-78
2022/11/23 05:28:22;;;;;;;4.00;3.60;;;4.50;99.90;;;;;;6147596;23;20698;-78
2022/11/23 05:30:49;;;;;;;4.53;2.03;;;4.50;99.90;;;;;;6142525;23;20220;-78
2022/11/23 05:33:18;;;;;;;4.93;2.50;;;4.40;99.90;;;;;;6125671;23;20569;-78
2022/11/23 05:35:45;;;;;;;4.72;2.33;;;4.40;99.90;;;;;;6138657;23;20285;-80
2022/11/23 05:38:17;;;;;;;4.65;2.75;;;4.40;99.90;;;;;;6141665;23;20222;-80
2022/11/23 05:40:46;;;;;;;3.58;2.20;;;4.40;99.90;;;;;;6141621;23;20191;-80
2022/11/23 05:43:13;;;;;;;5.70;2.65;;;4.50;99.90;;;;;;6137006;23;20194;-78
2022/11/23 05:45:40;;;;;;;5.47;2.58;;;4.40;99.90;;;;;;6125932;23;20249;-77
2022/11/23 05:48:10;;;;;;;4.35;2.65;;;4.60;99.90;;;;;;6139580;23;20222;-75
2022/11/23 05:50:38;;;;;;;7.32;3.75;;;4.60;99.90;;;;;;6137861;23;20190;-75
2022/11/23 05:53:05;;;;;;;4.15;2.88;;;4.60;99.90;;;;;;6141913;23;20244;-74
2022/11/23 05:55:33;;;;;;;4.63;2.60;;;4.70;99.90;;;;;;6136052;23;20191;-75
2022/11/23 05:58:02;;;;;;;6.78;2.80;;;4.70;99.90;;;;;;6131765;23;20262;-74
2022/11/23 06:00:29;;;;;;;3.90;2.60;;;4.70;99.90;;;;;;6136675;23;20254;-74
2022/11/23 06:03:00;;;;;;;4.43;2.38;;;4.70;99.90;;;;;;6108375;23;20414;-77
2022/11/23 06:05:27;;;;;;;5.72;3.30;;;4.60;99.90;;;;;;6143634;23;20187;-73
2022/11/23 06:07:56;;;;;;;3.63;2.70;;;4.70;99.90;;;;;;6142962;23;20214;-74
2022/11/23 06:10:25;;;;;;;6.72;3.17;;;4.70;99.90;;;;;;6137030;23;20262;-74
2022/11/23 06:12:52;;;;;;;4.55;2.85;;;4.70;99.90;;;;;;6147300;23;20244;-74
2022/11/23 06:15:19;;;;;;;5.80;2.90;;;4.70;99.90;;;;;;6140883;23;20187;-75
2022/11/23 06:17:46;;;;;;;6.03;3.28;;;4.70;99.90;;;;;;6144995;23;20190;-74
2022/11/23 06:20:13;;;;;;;5.95;3.70;;;4.60;99.90;;;;;;6139996;23;20205;-75
2022/11/23 06:22:40;;;;;;;5.60;2.60;;;4.60;99.90;;;;;;6142363;23;20250;-74
2022/11/23 06:25:11;;;;;;;5.43;2.80;;;4.70;99.90;;;;;;6142933;23;20711;-74
2022/11/23 06:27:37;;;;;;;3.70;2.85;;;4.70;99.90;;;;;;6140317;23;20224;-74
2022/11/23 06:30:06;;;;;;;4.85;3.13;;;4.60;99.90;;;;;;6143574;23;20343;-75
2022/11/23 06:32:33;;;;;;;5.50;3.45;;;4.60;99.90;;;;;;6131760;23;20551;-74
2022/11/23 06:35:02;;;;;;;5.90;2.90;;;4.60;99.90;;;;;;6144519;23;20221;-74
2022/11/23 06:37:29;;;;;;;3.47;3.15;;;4.60;99.90;;;;;;6141597;23;20572;-74
2022/11/23 06:39:56;;;;;;;6.50;3.15;;;4.70;99.90;;;;;;6147578;23;20924;-75
2022/11/23 06:42:25;;;;;;;8.15;3.38;;;4.70;99.90;;;;;;6128291;23;20237;-74
2022/11/23 06:44:52;;;;;;;6.20;3.13;;;4.60;99.90;;;;;;6132000;23;20243;-74
2022/11/23 06:47:20;;;;;;;4.85;3.75;;;4.70;99.90;;;;;;6144355;23;20672;-74
2022/11/23 06:49:47;;;;;;;6.80;3.30;;;4.70;99.90;;;;;;6147497;23;20238;-74
2022/11/23 06:52:14;;;;;;;6.70;3.00;;;4.70;99.90;;;;;;6119900;23;20463;-74
2022/11/23 06:54:42;;;;;;;5.25;3.15;;;4.70;99.90;;;;;;6145495;23;20505;-73
2022/11/23 06:57:10;;;;;;;6.50;3.65;;;4.70;99.90;;;;;;6147357;23;20197;-74
2022/11/23 06:59:44;;;;;;;4.90;3.38;;;4.70;99.90;;;;;;6136780;23;20512;-74
2022/11/23 07:02:11;;;;;;;7.35;3.80;;;4.70;99.90;;;;;;6129987;23;20209;-74
2022/11/23 07:04:39;;;;;;;4.65;3.75;;;4.80;99.90;;;;;;6129693;23;20195;-74
2022/11/23 07:07:07;;;;;;;3.65;2.95;;;4.80;99.90;;;;;;6140815;23;20289;-75
2022/11/23 07:09:35;;;;;;;4.22;3.25;;;4.80;99.90;;;;;;6095801;23;20269;-75
2022/11/23 07:12:02;;;;;;;5.25;2.97;;;4.90;99.90;;;;;;6129645;23;20262;-75
2022/11/23 07:14:30;;;;;;;6.07;3.30;;;4.90;99.90;;;;;;6147591;23;20217;-75
2022/11/23 07:16:58;;;;;;;7.68;3.72;;;4.80;99.90;;;;;;6112176;23;20191;-75
2022/11/23 07:19:25;;;;;;;4.60;3.40;;;4.90;99.90;;;;;;6144323;23;20603;-75
2022/11/23 07:21:53;;;;;;;4.95;3.70;;;4.90;99.90;;;;;;6109944;23;20196;-74
2022/11/23 07:24:21;;;;;;;4.80;3.20;;;4.90;99.90;;;;;;6134488;23;20641;-75
2022/11/23 07:26:49;;;;;;;4.95;3.30;;;5.00;99.90;;;;;;6137744;23;20219;-75
2022/11/23 07:29:16;;;;;;;6.97;3.25;;;5.00;99.90;;;;;;6143636;23;20211;-75
2022/11/23 07:31:43;;;;;;;7.57;3.38;;;5.00;99.90;;;;;;6142959;23;20281;-75
2022/11/23 07:34:12;;;;;;;7.03;3.45;;;5.00;99.90;;;;;;6148262;23;20214;-75
2022/11/23 07:36:39;;;;;;;6.57;3.85;;;5.00;99.90;;;;;;6146615;23;20268;-75
2022/11/23 07:39:07;;;;;;;6.22;3.38;;;5.00;99.90;;;;;;6148055;23;20198;-75
2022/11/23 07:41:34;;;;;;;8.85;3.90;;;5.00;99.90;;;;;;6145086;23;20182;-75
2022/11/23 07:44:02;;;;;;;8.57;3.85;;;5.00;99.90;;;;;;6132868;23;20273;-75
2022/11/23 07:46:29;;;;;;;5.93;3.25;;;5.00;99.90;;;;;;6126169;23;20204;-75
2022/11/23 07:49:00;;;;;;;6.50;3.40;;;5.10;99.90;;;;;;6135373;23;20820;-75
2022/11/23 07:51:29;;;;;;;7.03;3.80;;;5.10;99.90;;;;;;6147798;23;20277;-75
2022/11/23 07:53:56;;;;;;;5.85;3.50;;;5.20;99.90;;;;;;6143617;23;20630;-76
2022/11/23 07:56:23;;;;;;;9.52;4.00;;;5.40;99.90;;;;;;6142322;23;20630;-75
2022/11/23 07:58:50;;;;;;;5.90;3.47;;;5.50;99.90;;;;;;6137180;23;20195;-75
2022/11/23 08:01:20;;;;;;;6.03;3.42;;;5.60;99.90;;;;;;6144815;23;20688;-75
2022/11/23 08:03:48;;;;;;;7.47;3.15;;;5.60;99.90;;;;;;6139491;23;20198;-75
2022/11/23 08:06:16;;;;;;;6.13;3.35;;;5.70;99.90;;;;;;6121532;23;20187;-75
2022/11/23 08:08:45;;;;;;;7.93;3.08;;;5.80;99.90;;;;;;6132034;23;20713;-75
2022/11/23 08:11:16;;;;;;;4.13;2.88;;;5.90;99.90;;;;;;6145032;23;20191;-75
2022/11/23 08:13:43;;;;;;;5.43;2.85;;;6.00;99.90;;;;;;6105989;23;20432;-75
2022/11/23 08:16:10;;;;;;;7.20;3.10;;;6.10;99.90;;;;;;6146070;23;20191;-75
2022/11/23 08:18:37;;;;;;;4.10;3.00;;;6.20;99.90;;;;;;6142936;23;20767;-75
2022/11/23 08:21:05;;;;;;;4.40;2.70;;;6.40;99.90;;;;;;6152964;23;20221;-75
2022/11/23 08:23:33;;;;;;;7.00;3.20;;;6.80;99.90;;;;;;6145678;23;20850;-75
2022/11/23 08:26:03;;;;;;;4.40;2.50;;;7.40;99.90;;;;;;6145603;23;20194;-75
2022/11/23 08:28:30;;;;;;;7.13;2.78;;;7.80;99.90;;;;;;6140871;23;20191;-75
2022/11/23 08:30:58;;;;;;;4.13;2.47;;;7.80;99.90;;;;;;6109740;23;20218;-75
2022/11/23 08:33:27;;;;;;;4.85;2.45;;;7.90;99.90;;;;;;6145977;23;20224;-75
2022/11/23 08:35:55;;;;;;;4.78;2.85;;;7.90;99.90;;;;;;6143741;23;20813;-75
2022/11/23 08:38:22;;;;;;;3.85;2.60;;;8.00;99.90;;;;;;6144859;23;20235;-75
2022/11/23 08:40:50;;;;;;;7.45;3.25;;;8.00;99.90;;;;;;6118773;23;20272;-75
2022/11/23 08:43:19;;;;;;;3.50;2.33;;;7.90;99.90;;;;;;6143882;23;20193;-75
2022/11/23 08:45:46;;;;;;;5.50;2.67;;;8.10;99.90;;;;;;6141591;23;20199;-75
2022/11/23 08:48:13;;;;;;;3.92;2.75;;;8.30;99.90;;;;;;6108023;23;20198;-75
2022/11/23 08:50:40;;;;;;;10.65;3.10;;;8.70;99.90;;;;;;6141377;23;20266;-75
2022/11/23 08:53:07;;;;;;;3.87;2.50;;;9.30;99.90;;;;;;6100872;23;1097901;-75
2022/11/23 08:55:34;;;;;;;3.60;2.53;;;9.80;99.90;;;;;;6146006;23;20336;-76
2022/11/23 08:58:02;;;;;;;3.25;2.58;;;10.20;99.90;;;;;;6133825;23;20255;-75
2022/11/23 09:00:30;;;;;;;4.85;2.58;;;10.10;99.90;;;;;;6108218;23;20190;-76
2022/11/23 09:02:58;;;;;;;5.00;3.13;;;10.30;99.90;;;;;;6146913;23;20194;-75
2022/11/23 09:05:27;;;;;;;3.20;2.85;;;10.50;99.90;;;;;;6136270;23;20186;-76
2022/11/23 09:07:54;;;;;;;4.22;2.45;;;10.60;99.90;;;;;;6144843;23;20191;-75
2022/11/23 09:10:21;;;;;;;4.35;2.78;;;10.80;99.90;;;;;;6146669;23;20218;-76
2022/11/23 09:12:48;;;;;;;3.92;2.33;;;10.90;99.90;;;;;;6146903;23;20199;-75
2022/11/23 09:15:17;;;;;;;3.90;2.60;;;11.30;99.90;;;;;;6137128;23;20195;-75
2022/11/23 09:17:45;;;;;;;4.63;2.50;;;11.50;99.90;;;;;;6148044;23;20707;-76
2022/11/23 09:20:13;;;;;;;4.77;2.17;;;11.70;99.90;;;;;;6138123;23;20299;-76
2022/11/23 09:22:40;;;;;;;4.70;2.20;;;11.90;99.90;;;;;;6141330;23;21285;-76
2022/11/23 09:25:09;;;;;;;3.10;2.33;;;12.10;99.90;;;;;;6135467;23;20907;-76
2022/11/23 09:27:36;;;;;;;6.93;2.30;;;12.20;99.90;;;;;;6128973;23;20434;-76
2022/11/23 09:30:04;;;;;;;3.33;2.10;;;12.10;99.90;;;;;;6140166;23;20488;-77
2022/11/23 09:32:32;;;;;;;4.47;2.30;;;12.00;99.90;;;;;;6137038;23;20575;-77
2022/11/23 09:35:01;;;;;;;4.55;2.20;;;11.90;99.90;;;;;;6145998;23;20644;-77
2022/11/23 09:37:28;;;;;;;5.30;2.40;;;11.90;99.90;;;;;;6145860;23;21445;-77
2022/11/23 09:39:55;;;;;;;4.15;2.38;;;11.90;99.90;;;;;;6144200;23;20965;-77
2022/11/23 09:42:39;;;;;;;4.73;2.20;;;11.90;99.90;;;;;;6141099;23;20187;-77
2022/11/23 09:45:19;;;;;;;6.20;2.55;;;11.50;99.90;;;;;;6109494;23;20536;-77
2022/11/23 09:47:59;;;;;;;5.53;2.42;;;11.10;99.90;;;;;;6144512;23;20182;-77
2022/11/23 09:50:41;;;;;;;3.45;2.50;;;11.00;99.90;;;;;;6128088;23;20282;-77
2022/11/23 09:53:15;;;;;;;2.95;2.45;;;11.30;99.90;;;;;;6135905;23;21252;-77
2022/11/23 09:55:45;;;;;;;4.28;2.40;;;11.40;99.90;;;;;;6106956;23;20710;-77
2022/11/23 09:58:15;;;;;;;4.95;2.40;;;11.30;99.90;;;;;;6116799;23;20258;-77
2022/11/23 10:00:48;;;;;;;5.28;2.58;;;11.40;99.90;;;;;;6134628;23;20251;-77
2022/11/23 10:03:17;;;;;;;5.20;2.35;;;11.80;99.90;;;;;;6113270;23;20198;-77
2022/11/23 10:05:57;;;;;;;3.60;2.10;;;12.10;99.90;;;;;;6142988;23;20565;-77
2022/11/23 10:08:36;;;;;;;5.60;2.73;;;12.50;99.90;;;;;;6144861;23;20544;-77
2022/11/23 10:11:18;;;;;;;3.90;2.40;;;12.70;99.90;;;;;;6139917;23;20557;-77
2022/11/23 10:13:58;;;;;;;5.50;3.17;;;12.90;99.90;;;;;;6144472;23;20443;-78
2022/11/23 10:16:35;;;;;;;3.80;2.63;;;13.00;99.90;;;;;;6117852;23;20563;-78
2022/11/23 10:19:12;;;;;;;6.50;3.07;;;13.10;99.90;;;;;;6141906;23;20964;-77
2022/11/23 10:21:48;;;;;;;4.87;2.20;;;13.30;99.90;;;;;;6142879;23;20477;-77
2022/11/23 10:24:19;;;;;;;4.70;2.80;;;13.70;99.90;;;;;;6141595;23;20491;-75
2022/11/23 10:26:49;;;;;;;6.83;2.87;;;13.70;99.90;;;;;;6138708;23;20432;-77
2022/11/23 10:29:31;;;;;;;7.30;2.70;;;13.60;99.90;;;;;;6135269;23;20428;-78
2022/11/23 10:31:59;;;;;;;4.60;2.53;;;13.50;99.90;;;;;;6150015;23;20507;-77
2022/11/23 10:34:44;;;;;;;5.10;2.80;;;13.50;99.90;;;;;;6142888;23;20551;-75
2022/11/23 10:37:14;;;;;;;6.33;3.00;;;13.70;99.90;;;;;;6134216;23;20988;-76
2022/11/23 10:39:42;;;;;;;5.77;2.83;;;13.70;99.90;;;;;;6131949;23;20907;-73
2022/11/23 10:42:20;;;;;;;5.07;3.00;;;13.30;99.90;;;;;;6126809;23;20548;-76
2022/11/23 10:44:51;;;;;;;5.30;2.70;;;13.50;99.90;;;;;;6142601;23;20434;-75
2022/11/23 10:47:35;;;;;;;4.83;3.00;;;13.50;99.90;;;;;;6132466;23;20940;-74
2022/11/23 10:50:18;;;;;;;5.27;2.80;;;13.60;99.90;;;;;;6136585;23;20826;-74
2022/11/23 10:52:55;;;;;;;4.70;2.47;;;13.50;99.90;;;;;;6136357;23;20449;-74
2022/11/23 10:55:26;;;;;;;4.50;2.50;;;13.30;99.90;;;;;;6141982;23;20453;-74
2022/11/23 10:57:55;;;;;;;5.50;2.33;;;13.40;99.90;;;;;;6144182;23;20938;-74
2022/11/23 11:00:25;;;;;;;3.40;2.50;;;13.60;99.90;;;;;;6136059;23;20427;-74
2022/11/23 11:02:55;;;;;;;4.00;2.70;;;13.70;99.90;;;;;;6133589;23;20491;-74
2022/11/23 11:05:29;;;;;;;4.87;2.60;;;14.10;99.90;;;;;;6128988;23;20504;-74
2022/11/23 11:08:00;;;;;;;7.97;3.63;;;14.10;99.90;;;;;;6122465;23;20429;-75
2022/11/23 11:10:38;;;;;;;5.87;3.00;;;14.00;99.90;;;;;;6142295;23;20495;-74
2022/11/23 11:13:24;;;;;;;5.00;2.70;;;13.80;99.90;;;;;;6149015;23;20454;-74
2022/11/23 11:15:57;;;;;;;5.73;2.50;;;14.20;99.90;;;;;;6151144;23;20446;-75
2022/11/23 11:18:27;;;;;;;5.03;2.63;;;14.20;99.90;;;;;;6144952;23;20440;-75
2022/11/23 11:21:01;;;;;;;6.40;2.47;;;14.50;99.90;;;;;;6141660;23;20440;-74
2022/11/23 11:23:31;;;;;;;3.40;2.40;;;14.60;99.90;;;;;;6150850;23;20746;-75
2022/11/23 11:26:09;;;;;;;4.60;2.23;;;14.60;99.90;;;;;;6148548;23;20432;-75
2022/11/23 11:28:40;;;;;;;4.40;2.17;;;14.30;99.90;;;;;;6132376;23;20437;-74
2022/11/23 11:31:32;;;;;;;2.70;1.87;;;14.40;99.90;;;;;;6133598;23;20454;-74
2022/11/23 11:34:09;;;;;;;4.70;2.13;;;14.60;99.90;;;;;;6137159;23;20922;-75
2022/11/23 11:36:41;;;;;;;5.03;2.57;;;14.70;99.90;;;;;;6147692;23;20436;-74
2022/11/23 11:39:15;;;;;;;3.40;2.20;;;14.80;99.90;;;;;;6142414;23;20528;-74
2022/11/23 11:41:44;;;;;;;4.80;2.50;;;15.00;99.90;;;;;;6132792;23;20429;-75
2022/11/23 11:44:18;;;;;;;4.33;2.00;;;15.00;99.90;;;;;;6144025;23;20524;-74
2022/11/23 11:46:51;;;;;;;3.57;2.00;;;14.80;99.90;;;;;;6148219;23;20465;-75
2022/11/23 11:49:23;;;;;;;5.10;2.50;;;14.60;99.90;;;;;;6136147;23;20476;-74
2022/11/23 11:51:56;;;;;;;3.23;2.30;;;14.70;99.90;;;;;;6147951;23;20567;-75
2022/11/23 11:54:28;;;;;;;3.13;1.90;;;14.50;99.90;;;;;;6145326;23;20467;-75
2022/11/23 11:57:01;;;;;;;3.57;2.20;;;14.60;99.90;;;;;;6146099;23;21266;-75
2022/11/23 11:59:31;;;;;;;2.97;2.30;;;14.60;99.90;;;;;;6141687;23;20856;-75
2022/11/23 12:02:14;;;;;;;5.60;2.27;;;14.80;99.90;;;;;;6152459;23;20515;-75
2022/11/23 12:04:49;;;;;;;3.77;1.90;;;15.00;99.90;;;;;;6138695;23;20511;-75
2022/11/23 12:07:24;;;;;;;5.50;2.50;;;15.00;99.90;;;;;;6146182;23;20432;-75
2022/11/23 12:10:00;;;;;;;4.93;1.90;;;14.80;99.90;;;;;;6086030;23;20440;-75
2022/11/23 12:12:30;;;;;;;4.97;2.00;;;14.70;99.90;;;;;;6121396;23;20429;-75
2022/11/23 12:14:58;;;;;;;3.63;2.17;;;14.60;99.90;;;;;;6124182;23;20774;-76
2022/11/23 12:17:47;;;;;;;4.07;2.07;;;14.50;99.90;;;;;;6144230;23;20826;-76
2022/11/23 12:20:21;;;;;;;2.47;1.60;;;14.30;99.90;;;;;;6142075;23;20472;-73
2022/11/23 12:23:03;;;;;;;2.77;1.90;;;14.40;99.90;;;;;;6120804;23;20441;-74
2022/11/23 12:25:35;;;;;;;4.27;1.97;;;14.30;99.90;;;;;;6146174;23;20455;-74
2022/11/23 12:28:27;;;;;;;3.03;1.73;;;13.90;99.90;;;;;;6138113;23;20467;-75
2022/11/23 12:31:04;;;;;;;2.90;2.00;;;13.70;99.90;;;;;;6156096;23;20471;-73
2022/11/23 12:33:54;;;;;;;1.90;1.30;;;13.20;99.90;;;;;;6150276;23;20468;-74
2022/11/23 12:36:54;;;;;;;1.60;1.50;;;13.10;99.90;;;;;;6140106;23;20448;-74
2022/11/23 12:39:37;;;;;;;2.40;1.70;;;13.00;99.90;;;;;;6140491;23;20493;-75
2022/11/23 12:42:13;;;;;;;2.03;1.60;;;13.00;99.90;;;;;;6132776;23;20444;-75
2022/11/23 12:44:54;;;;;;;3.70;2.50;;;13.00;99.90;;;;;;6116188;23;20425;-74
2022/11/23 12:47:34;;;;;;;2.63;1.27;;;12.60;99.90;;;;;;6147877;23;21077;-74
2022/11/23 12:50:10;;;;;;;1.42;1.30;;;12.30;99.90;;;;;;6132280;23;20509;-74
2022/11/23 12:53:05;;;;;;;3.22;1.63;;;12.30;99.90;;;;;;6127808;23;20187;-74
2022/11/23 12:55:43;;;;;;;3.45;1.23;;;12.30;99.90;;;;;;6146473;23;20198;-74
2022/11/23 12:58:19;;;;;;;3.87;1.33;;;12.40;99.90;;;;;;6132481;23;20191;-73
2022/11/23 13:00:49;;;;;;;1.17;1.00;;;12.50;99.90;;;;;;6124415;23;20468;-74
2022/11/23 13:03:59;;;;;;;1.40;1.13;;;12.40;99.90;;;;;;6149506;23;20832;-75
2022/11/23 13:06:58;;;;;;;1.52;1.10;;;12.30;99.90;;;;;;6142972;23;20545;-75
2022/11/23 13:09:53;;;;;;;3.25;1.00;;;12.20;99.90;;;;;;6129308;23;20194;-76